El Bolson, Argentina
Current Conditions -  °F | °C
As of 11:00 AM on Thursday 23 Oct 2014 (Local Time) from SAZS Reporting Station
Clear Clear  
Wind Chill: 54°   Ceiling: Unl
Heat Index: 54°   Visibility: 6mi
Dew Point: 37°   Wind: 5mph
Humidity: 54%   Direction: 290°WNW
Pressure: 30.12"   Gusts: NA
Location:  41.97°S, 71.52°W
Report Text: SAZS 231400Z 29004KT CAVOK 12/03 Q1020
Loading
Personal Weather Stations






























Interactive Weather Map New forecast layout! Learn more

10-Day Weather Forecast

Advertisements
Track Severe Weather on mobile